Startpagina
METAR-TAF:

METAR-TAF

Vliegvelden :

Tarawa, Kiribati

Bonriki International Airport

breedte: 01-21N, lengte: 172-55E, hoogte: 2 m

Actueel weer

Dit bericht is 1 uur en het 4 minuten geleden gemaakt, om 09:00 UTC
Wind 10 kt uit het oostnoordoosten
Temperatuur 28°C
Vochtigheid 84%
Druk 1008 hPa
Zicht 10 km of meer
Weinig wolken op 2000 ft
Verspreide wolken op 30000 ft

METAR: NGTA 190900Z 06010KT 9999 FEW020 SCT300 28/25 Q1008

Tijdstip: 00:04 (10:04 UTC)

Verwachting

Dit bericht is 5 uur en het 5 minuten geleden gemaakt, om 04:59 UTC
Verwachting geldig van 19 om 06 UTC tot 20 om 06 UTC
Wind 9 kt uit het oostnoordoosten
Zicht 10 km of meer
Verspreide wolken op 2000 ft
Verspreide wolken op 4000 ft
Kans 30% :
Tijdelijke
van 19 om 16 UTC tot 20 om 06 UTC
Zicht: 5000 m
Gebroken wolken op 1500 ft
Weinig wolken op 1800 ft, Cumulonimbus.
onweer, regen

TAF: NGTA 190459Z 1906/2006 06009KT 9999 SCT020 SCT040 PROB30 TEMPO 1916/2006 5000 TSRA BKN015 FEW018CB

Waarnemingen en weersverwachtingen van meer dan 4000 vliegvelden (METAR en TAF).

De beschikbare stations zijn de gele en rode punten op de kaart.

Ga met uw muis naar het station om de naam te zien.

Klik dan om waarnemingen en weersverwachtingen te zien.

kaart wijzigen: klik op de groene knoppen met een zwart kruis om in te zoomen, op de groene knop met een streepje om uit te zoomen of op de groene pijlen voor aangrenzende kaarten.


METAR-TAF: